Terminal Aerodrome Forecast
Issued by NWS Wakefield, VA

Home | Current Version | Previous Version | Text Only | Print | Product List | Glossary On
Versions: 1 2 3 4 5 6 7 8 9 10 11 12 13 14 15 16 17 18 19 20
000
FTUS41 KAKQ 261100 RRA
TAFECG
TAF
KECG 261144Z 2612/2712 VRB05KT P6SM SCT030 BKN050
     FM262200 30006KT P6SM -RA SCT020 OVC040
     FM270300 32009G15KT 4SM -RA BR SCT007 OVC020=

USA.gov is the U.S. government's official web portal to all federal, state and local government web resources and services.